createdAt,value
2018-12-06T00:00:45.066Z,990.85
2018-12-06T00:01:45.211Z,990.84
2018-12-06T00:02:45.649Z,990.84
2018-12-06T00:03:45.557Z,990.81
2018-12-06T00:04:45.703Z,990.81
2018-12-06T00:05:45.850Z,990.76
2018-12-06T00:06:45.997Z,990.79
2018-12-06T00:07:46.145Z,990.78
2018-12-06T00:08:46.288Z,990.79
2018-12-06T00:09:46.432Z,990.83
2018-12-06T00:10:46.576Z,990.84
2018-12-06T00:11:46.719Z,990.80
2018-12-06T00:12:46.872Z,990.80
2018-12-06T00:13:47.017Z,990.78
2018-12-06T00:14:47.164Z,990.83
2018-12-06T00:15:47.310Z,990.84
2018-12-06T00:16:47.455Z,990.85
2018-12-06T00:17:47.601Z,990.84
2018-12-06T00:18:47.746Z,990.79
2018-12-06T00:19:47.890Z,990.80
2018-12-06T00:20:48.039Z,990.77
2018-12-06T00:21:48.184Z,990.76
2018-12-06T00:22:48.327Z,990.75
2018-12-06T00:23:48.475Z,990.76
2018-12-06T00:24:48.625Z,990.77
2018-12-06T00:25:48.767Z,990.77
2018-12-06T00:26:48.913Z,990.75
2018-12-06T00:27:49.060Z,990.73
2018-12-06T00:28:49.203Z,990.78
2018-12-06T00:29:49.350Z,990.77
2018-12-06T00:30:49.491Z,990.76
2018-12-06T00:31:49.637Z,990.75
2018-12-06T00:32:49.782Z,990.72
2018-12-06T00:33:49.928Z,990.66
2018-12-06T00:34:50.074Z,990.60
2018-12-06T00:35:50.220Z,990.60
2018-12-06T00:36:50.363Z,990.58
2018-12-06T00:37:50.508Z,990.57
2018-12-06T00:38:50.653Z,990.59
2018-12-06T00:39:50.801Z,990.58
2018-12-06T00:40:50.945Z,990.55
2018-12-06T00:41:51.086Z,990.53
2018-12-06T00:42:51.238Z,990.50
2018-12-06T00:43:51.387Z,990.53
2018-12-06T00:44:51.528Z,990.58
2018-12-06T00:45:51.673Z,990.57
2018-12-06T00:46:51.820Z,990.59
2018-12-06T00:47:51.965Z,990.57
2018-12-06T00:48:52.112Z,990.55
2018-12-06T00:49:52.256Z,990.53
2018-12-06T00:50:52.402Z,990.51
2018-12-06T00:51:52.546Z,990.51
2018-12-06T00:52:52.691Z,990.52
2018-12-06T00:53:52.838Z,990.54
2018-12-06T00:54:52.983Z,990.57
2018-12-06T00:55:53.128Z,990.52
2018-12-06T00:56:53.274Z,990.56
2018-12-06T00:57:53.419Z,990.57
2018-12-06T00:58:53.566Z,990.54
2018-12-06T00:59:53.712Z,990.51
2018-12-06T01:00:53.856Z,990.53
2018-12-06T01:01:54.002Z,990.51
2018-12-06T01:02:54.147Z,990.53
2018-12-06T01:03:54.292Z,990.51
2018-12-06T01:04:54.441Z,990.55
2018-12-06T01:05:54.582Z,990.49
2018-12-06T01:06:54.730Z,990.49
2018-12-06T01:07:54.876Z,990.46
2018-12-06T01:08:55.019Z,990.46
2018-12-06T01:09:55.164Z,990.45
2018-12-06T01:10:55.309Z,990.49
2018-12-06T01:11:55.456Z,990.46
2018-12-06T01:12:55.599Z,990.44
2018-12-06T01:13:55.751Z,990.47
2018-12-06T01:14:55.892Z,990.45
2018-12-06T01:15:56.036Z,990.40
2018-12-06T01:16:56.183Z,990.40
2018-12-06T01:17:56.405Z,990.42
2018-12-06T01:18:56.472Z,990.42
2018-12-06T01:19:56.616Z,990.34
2018-12-06T01:20:56.765Z,990.35
2018-12-06T01:21:56.908Z,990.37
2018-12-06T01:22:57.052Z,990.35
2018-12-06T01:23:57.200Z,990.34
2018-12-06T01:24:57.342Z,990.36
2018-12-06T01:25:57.486Z,990.36
2018-12-06T01:26:57.631Z,990.37
2018-12-06T01:27:57.782Z,990.31
2018-12-06T01:28:57.929Z,990.34
2018-12-06T01:29:58.067Z,990.34
2018-12-06T01:30:58.220Z,990.29
2018-12-06T01:31:58.365Z,990.34
2018-12-06T01:32:58.509Z,990.30
2018-12-06T01:33:58.657Z,990.31
2018-12-06T01:34:58.799Z,990.28
2018-12-06T01:35:58.942Z,990.27
2018-12-06T01:36:59.089Z,990.24
2018-12-06T01:37:59.235Z,990.25
2018-12-06T01:38:59.382Z,990.25
2018-12-06T01:39:59.527Z,990.23
2018-12-06T01:40:59.677Z,990.25
2018-12-06T01:41:59.821Z,990.25
2018-12-06T01:42:59.969Z,990.23
2018-12-06T01:44:00.116Z,990.21
2018-12-06T01:45:00.263Z,990.20
2018-12-06T01:46:00.408Z,990.17
2018-12-06T01:47:00.552Z,990.14
2018-12-06T01:48:00.697Z,990.17
2018-12-06T01:49:00.842Z,990.12
2018-12-06T01:50:00.987Z,990.19
2018-12-06T01:51:01.135Z,990.15
2018-12-06T01:52:01.278Z,990.14
2018-12-06T01:53:01.424Z,990.15
2018-12-06T01:54:01.570Z,990.11
2018-12-06T01:55:01.715Z,990.13
2018-12-06T01:56:01.861Z,990.09
2018-12-06T01:57:02.005Z,990.12
2018-12-06T01:58:02.152Z,990.09
2018-12-06T01:59:02.295Z,990.09
2018-12-06T02:00:02.442Z,990.09
2018-12-06T02:01:02.587Z,990.08
2018-12-06T02:02:02.731Z,990.05
2018-12-06T02:03:02.876Z,990.07
2018-12-06T02:04:03.023Z,990.00
2018-12-06T02:05:03.166Z,989.97
2018-12-06T02:06:03.310Z,989.95
2018-12-06T02:07:03.462Z,989.96
2018-12-06T02:08:03.606Z,989.94
2018-12-06T02:09:03.750Z,989.91
2018-12-06T02:10:03.897Z,989.89
2018-12-06T02:11:04.040Z,989.91
2018-12-06T02:12:04.188Z,989.89
2018-12-06T02:13:04.336Z,989.88
2018-12-06T02:14:04.480Z,989.87
2018-12-06T02:15:04.628Z,989.88
2018-12-06T02:16:04.774Z,989.90
2018-12-06T02:17:04.921Z,989.87
2018-12-06T02:18:05.065Z,989.87
2018-12-06T02:19:05.210Z,989.88
2018-12-06T02:20:05.362Z,989.91
2018-12-06T02:21:05.502Z,989.91
2018-12-06T02:22:05.648Z,989.87
2018-12-06T02:23:05.794Z,989.87
2018-12-06T02:24:05.944Z,989.83
2018-12-06T02:25:06.092Z,989.81
2018-12-06T02:26:06.238Z,989.82
2018-12-06T02:27:06.382Z,989.79
2018-12-06T02:28:06.529Z,989.81
2018-12-06T02:29:06.676Z,989.77
2018-12-06T02:30:06.821Z,989.79
2018-12-06T02:31:06.968Z,989.77
2018-12-06T02:32:07.112Z,989.75
2018-12-06T02:33:07.260Z,989.75
2018-12-06T02:34:07.405Z,989.71
2018-12-06T02:35:07.675Z,989.72
2018-12-06T02:36:07.697Z,989.67
2018-12-06T02:37:07.849Z,989.65
2018-12-06T02:38:07.984Z,989.60
2018-12-06T02:39:08.140Z,989.60
2018-12-06T02:40:08.278Z,989.60
2018-12-06T02:41:08.423Z,989.54
2018-12-06T02:42:08.569Z,989.55
2018-12-06T02:43:08.715Z,989.57
2018-12-06T02:44:08.859Z,989.57
2018-12-06T02:45:09.007Z,989.53
2018-12-06T02:46:09.152Z,989.55
2018-12-06T02:47:09.297Z,989.50
2018-12-06T02:48:09.445Z,989.50
2018-12-06T02:49:09.594Z,989.49
2018-12-06T02:50:09.738Z,989.46
2018-12-06T02:51:09.882Z,989.45
2018-12-06T02:52:10.030Z,989.43
2018-12-06T02:53:10.177Z,989.42
2018-12-06T02:54:10.319Z,989.42
2018-12-06T02:55:10.467Z,989.41
2018-12-06T02:56:10.618Z,989.41
2018-12-06T02:57:10.757Z,989.42
2018-12-06T02:58:10.903Z,989.41
2018-12-06T02:59:11.050Z,989.43
2018-12-06T03:00:11.195Z,989.40
2018-12-06T03:01:11.342Z,989.46
2018-12-06T03:02:11.489Z,989.46
2018-12-06T03:03:11.636Z,989.44
2018-12-06T03:04:11.784Z,989.49
2018-12-06T03:05:11.925Z,989.47
2018-12-06T03:06:12.072Z,989.46
2018-12-06T03:07:12.217Z,989.45
2018-12-06T03:08:12.363Z,989.43
2018-12-06T03:09:12.508Z,989.45
2018-12-06T03:10:12.657Z,989.46
2018-12-06T03:11:12.804Z,989.46
2018-12-06T03:12:12.947Z,989.47
2018-12-06T03:13:13.101Z,989.48
2018-12-06T03:14:13.245Z,989.47
2018-12-06T03:15:13.391Z,989.48
2018-12-06T03:16:13.531Z,989.44
2018-12-06T03:17:13.677Z,989.49
2018-12-06T03:18:13.825Z,989.45
2018-12-06T03:19:13.969Z,989.47
2018-12-06T03:20:14.119Z,989.41
2018-12-06T03:21:14.256Z,989.46
2018-12-06T03:22:14.421Z,989.46
2018-12-06T03:23:14.577Z,989.50
2018-12-06T03:24:14.713Z,989.52
2018-12-06T03:25:14.861Z,989.54
2018-12-06T03:26:15.002Z,989.54
2018-12-06T03:27:15.149Z,989.54
2018-12-06T03:28:15.297Z,989.57
2018-12-06T03:29:15.446Z,989.59
2018-12-06T03:30:15.591Z,989.58
2018-12-06T03:31:15.739Z,989.61
2018-12-06T03:32:15.889Z,989.63
2018-12-06T03:33:16.029Z,989.63
2018-12-06T03:34:16.174Z,989.61
2018-12-06T03:35:16.321Z,989.61
2018-12-06T03:36:16.466Z,989.62
2018-12-06T03:37:16.615Z,989.65
2018-12-06T03:38:16.761Z,989.66
2018-12-06T03:39:16.907Z,989.65
2018-12-06T03:40:17.052Z,989.67
2018-12-06T03:41:17.199Z,989.67
2018-12-06T03:42:17.343Z,989.70
2018-12-06T03:43:17.491Z,989.70
2018-12-06T03:44:17.744Z,989.69
2018-12-06T03:45:17.785Z,989.72
2018-12-06T03:46:17.935Z,989.73
2018-12-06T03:47:18.077Z,989.75
2018-12-06T03:48:18.224Z,989.75
2018-12-06T03:49:18.370Z,989.74
2018-12-06T03:50:18.515Z,989.80
2018-12-06T03:51:18.661Z,989.73
2018-12-06T03:52:18.804Z,989.76
2018-12-06T03:53:18.952Z,989.77
2018-12-06T03:54:19.101Z,989.74
2018-12-06T03:55:19.245Z,989.76
2018-12-06T03:56:19.393Z,989.80
2018-12-06T03:57:19.538Z,989.77
2018-12-06T03:58:19.684Z,989.75
2018-12-06T03:59:19.831Z,989.76
2018-12-06T04:00:19.976Z,989.78
2018-12-06T04:01:20.126Z,989.76
2018-12-06T04:02:20.268Z,989.79
2018-12-06T04:03:20.416Z,989.78
2018-12-06T04:04:20.560Z,989.79
2018-12-06T04:05:20.706Z,989.80
2018-12-06T04:06:20.853Z,989.81
2018-12-06T04:07:20.997Z,989.81
2018-12-06T04:08:21.149Z,989.81
2018-12-06T04:09:21.293Z,989.77
2018-12-06T04:10:21.438Z,989.78
2018-12-06T04:11:21.684Z,989.75
2018-12-06T04:12:21.735Z,989.74
2018-12-06T04:13:21.883Z,989.66
2018-12-06T04:14:22.026Z,989.69
2018-12-06T04:15:22.174Z,989.63
2018-12-06T04:16:22.319Z,989.64
2018-12-06T04:17:22.465Z,989.68
2018-12-06T04:18:22.613Z,989.65
2018-12-06T04:19:22.760Z,989.64
2018-12-06T04:20:22.906Z,989.58
2018-12-06T04:21:23.051Z,989.55
2018-12-06T04:22:23.199Z,989.53
2018-12-06T04:23:23.347Z,989.51
2018-12-06T04:24:23.493Z,989.55
2018-12-06T04:25:23.639Z,989.54
2018-12-06T04:26:23.786Z,989.53
2018-12-06T04:27:23.931Z,989.55
2018-12-06T04:28:24.082Z,989.57
2018-12-06T04:29:24.231Z,989.58
2018-12-06T04:30:24.373Z,989.55
2018-12-06T04:31:24.518Z,989.55
2018-12-06T04:32:24.663Z,989.57
2018-12-06T04:33:24.816Z,989.56
2018-12-06T04:34:24.959Z,989.58
2018-12-06T04:35:25.106Z,989.58
2018-12-06T04:36:25.266Z,989.60
2018-12-06T04:37:25.410Z,989.60
2018-12-06T04:38:25.555Z,989.54
2018-12-06T04:39:25.705Z,989.59
2018-12-06T04:40:25.854Z,989.55
2018-12-06T04:41:25.999Z,989.58
2018-12-06T04:42:26.147Z,989.51
2018-12-06T04:43:26.294Z,989.53
2018-12-06T04:44:26.442Z,989.49
2018-12-06T04:45:26.590Z,989.43
2018-12-06T04:46:26.734Z,989.43
2018-12-06T04:47:26.886Z,989.41
2018-12-06T04:48:27.033Z,989.41
2018-12-06T04:49:27.176Z,989.40
2018-12-06T04:50:27.323Z,989.40
2018-12-06T04:51:27.476Z,989.42
2018-12-06T04:52:27.619Z,989.40
2018-12-06T04:53:27.764Z,989.38
2018-12-06T04:54:27.910Z,989.38
2018-12-06T04:55:28.058Z,989.35
2018-12-06T04:56:28.206Z,989.36
2018-12-06T04:57:28.356Z,989.37
2018-12-06T04:58:28.499Z,989.40
2018-12-06T04:59:28.645Z,989.40
2018-12-06T05:00:28.792Z,989.41
2018-12-06T05:01:28.941Z,989.44
2018-12-06T05:02:29.086Z,989.44
2018-12-06T05:03:29.234Z,989.42
2018-12-06T05:04:29.380Z,989.41
2018-12-06T05:05:29.527Z,989.37
2018-12-06T05:06:29.672Z,989.38
2018-12-06T05:07:29.819Z,989.41
2018-12-06T05:08:29.966Z,989.34
2018-12-06T05:09:30.113Z,989.38
2018-12-06T05:10:30.260Z,989.37
2018-12-06T05:11:30.407Z,989.36
2018-12-06T05:12:30.554Z,989.38
2018-12-06T05:13:30.699Z,989.39
2018-12-06T05:14:30.846Z,989.36
2018-12-06T05:15:30.996Z,989.35
2018-12-06T05:16:31.140Z,989.35
2018-12-06T05:17:31.291Z,989.39
2018-12-06T05:18:31.439Z,989.37
2018-12-06T05:19:31.586Z,989.36
2018-12-06T05:20:31.732Z,989.39
2018-12-06T05:21:31.879Z,989.37
2018-12-06T05:22:32.022Z,989.31
2018-12-06T05:23:32.171Z,989.26
2018-12-06T05:24:32.315Z,989.25
2018-12-06T05:25:32.466Z,989.20
2018-12-06T05:26:32.611Z,989.18
2018-12-06T05:27:32.758Z,989.17
2018-12-06T05:28:32.907Z,989.16
2018-12-06T05:29:33.054Z,989.14
2018-12-06T05:30:33.199Z,989.15
2018-12-06T05:31:33.348Z,989.08
2018-12-06T05:32:33.493Z,989.08
2018-12-06T05:33:33.688Z,989.04
2018-12-06T05:34:33.823Z,989.04
2018-12-06T05:35:33.925Z,989.04
2018-12-06T05:36:34.075Z,989.08
2018-12-06T05:37:34.220Z,989.15
2018-12-06T05:38:34.369Z,989.17
2018-12-06T05:39:34.538Z,989.20
2018-12-06T05:40:34.649Z,989.15
2018-12-06T05:41:34.795Z,989.18
2018-12-06T05:42:34.943Z,989.19
2018-12-06T05:43:35.104Z,989.23
2018-12-06T05:44:35.231Z,989.25
2018-12-06T05:45:35.372Z,989.27
2018-12-06T05:46:35.517Z,989.29
2018-12-06T05:47:35.661Z,989.29
2018-12-06T05:48:35.809Z,989.25
2018-12-06T05:49:35.951Z,989.30
2018-12-06T05:50:36.101Z,989.28
2018-12-06T05:51:36.244Z,989.22
2018-12-06T05:52:36.390Z,989.19
2018-12-06T05:53:36.539Z,989.19
2018-12-06T05:54:36.686Z,989.25
2018-12-06T05:55:36.831Z,989.27
2018-12-06T05:56:36.980Z,989.30
2018-12-06T05:57:37.129Z,989.35
2018-12-06T05:58:37.271Z,989.42
2018-12-06T05:59:37.421Z,989.47
2018-12-06T06:00:37.569Z,989.52
2018-12-06T06:01:37.718Z,989.57
2018-12-06T06:02:37.865Z,989.61
2018-12-06T06:03:38.010Z,989.66
2018-12-06T06:04:38.155Z,989.69
2018-12-06T06:05:38.302Z,989.71
2018-12-06T06:06:38.450Z,989.76
2018-12-06T06:07:38.600Z,989.71
2018-12-06T06:08:38.744Z,989.69
2018-12-06T06:09:38.896Z,989.62
2018-12-06T06:10:39.036Z,989.63
2018-12-06T06:11:39.181Z,989.61
2018-12-06T06:12:39.332Z,989.63
2018-12-06T06:13:39.479Z,989.61
2018-12-06T06:14:39.624Z,989.60
2018-12-06T06:15:39.773Z,989.61
2018-12-06T06:16:39.918Z,989.64
2018-12-06T06:17:40.065Z,989.66
2018-12-06T06:18:40.210Z,989.64
2018-12-06T06:19:40.359Z,989.64
2018-12-06T06:20:40.504Z,989.60
2018-12-06T06:21:40.648Z,989.63
2018-12-06T06:22:40.793Z,989.65
2018-12-06T06:23:40.943Z,989.66
2018-12-06T06:24:41.088Z,989.67
2018-12-06T06:25:41.235Z,989.67
2018-12-06T06:26:41.383Z,989.70
2018-12-06T06:27:41.531Z,989.71
2018-12-06T06:28:41.678Z,989.69
2018-12-06T06:29:41.824Z,989.72
2018-12-06T06:30:41.970Z,989.71
2018-12-06T06:31:42.119Z,989.72
2018-12-06T06:32:42.260Z,989.68
2018-12-06T06:33:42.408Z,989.73
2018-12-06T06:34:42.575Z,989.75
2018-12-06T06:35:42.715Z,989.76
2018-12-06T06:36:42.852Z,989.73
2018-12-06T06:37:43.001Z,989.73
2018-12-06T06:38:43.149Z,989.67
2018-12-06T06:39:43.303Z,989.70
2018-12-06T06:40:43.441Z,989.67
2018-12-06T06:41:43.586Z,989.69
2018-12-06T06:42:43.734Z,989.67
2018-12-06T06:43:43.883Z,989.66
2018-12-06T06:44:44.028Z,989.67
2018-12-06T06:45:44.175Z,989.74
2018-12-06T06:46:44.328Z,989.77
2018-12-06T06:47:44.494Z,989.78
2018-12-06T06:48:44.609Z,989.81
2018-12-06T06:49:44.758Z,989.87
2018-12-06T06:50:44.903Z,989.89
2018-12-06T06:51:45.048Z,989.91
2018-12-06T06:52:45.197Z,989.88
2018-12-06T06:53:45.346Z,989.92
2018-12-06T06:54:45.494Z,989.91
2018-12-06T06:55:45.642Z,989.96
2018-12-06T06:56:45.790Z,989.89
2018-12-06T06:57:45.941Z,989.90
2018-12-06T06:58:46.089Z,989.85
2018-12-06T06:59:46.233Z,989.86
2018-12-06T07:00:46.381Z,989.81
2018-12-06T07:01:46.617Z,989.77
2018-12-06T07:02:46.675Z,989.73
2018-12-06T07:03:46.821Z,989.70
2018-12-06T07:04:46.969Z,989.68
2018-12-06T07:05:47.116Z,989.69
2018-12-06T07:06:47.264Z,989.72
2018-12-06T07:07:47.472Z,989.75
2018-12-06T07:08:47.612Z,989.74
2018-12-06T07:09:47.709Z,989.81
2018-12-06T07:10:47.868Z,989.80
2018-12-06T07:11:48.001Z,989.90
2018-12-06T07:12:48.154Z,989.97
2018-12-06T07:13:48.299Z,990.01
2018-12-06T07:14:48.443Z,990.03
2018-12-06T07:15:48.590Z,990.02
2018-12-06T07:16:48.740Z,990.00
2018-12-06T07:17:48.887Z,989.96
2018-12-06T07:18:49.035Z,989.95
2018-12-06T07:19:49.179Z,989.94
2018-12-06T07:20:49.330Z,989.98
2018-12-06T07:21:49.476Z,990.02
2018-12-06T07:22:49.623Z,990.07
2018-12-06T07:23:49.773Z,990.12
2018-12-06T07:24:49.922Z,990.11
2018-12-06T07:25:50.069Z,990.14
2018-12-06T07:26:50.219Z,990.10
2018-12-06T07:27:50.368Z,990.10
2018-12-06T07:28:50.518Z,990.12
2018-12-06T07:29:50.661Z,990.13
2018-12-06T07:30:50.808Z,990.17
2018-12-06T07:31:50.955Z,990.22
2018-12-06T07:32:51.105Z,990.28
2018-12-06T07:33:51.251Z,990.30
2018-12-06T07:34:51.401Z,990.34
2018-12-06T07:35:51.547Z,990.39
2018-12-06T07:36:51.698Z,990.41
2018-12-06T07:37:51.841Z,990.43
2018-12-06T07:38:51.990Z,990.39
2018-12-06T07:39:52.138Z,990.36
2018-12-06T07:40:52.286Z,990.33
2018-12-06T07:41:52.435Z,990.33
2018-12-06T07:42:52.585Z,990.31
2018-12-06T07:43:52.730Z,990.33
2018-12-06T07:44:52.874Z,990.32
2018-12-06T07:45:53.024Z,990.37
2018-12-06T07:46:53.168Z,990.40
2018-12-06T07:47:53.317Z,990.45
2018-12-06T07:48:53.466Z,990.42
2018-12-06T07:49:53.611Z,990.42
2018-12-06T07:50:53.760Z,990.42
2018-12-06T07:51:53.909Z,990.50
2018-12-06T07:52:54.057Z,990.52
2018-12-06T07:53:54.204Z,990.57
2018-12-06T07:54:54.354Z,990.65
2018-12-06T07:55:54.501Z,990.62
2018-12-06T07:56:54.651Z,990.65
2018-12-06T07:57:54.799Z,990.63
2018-12-06T07:58:54.946Z,990.62
2018-12-06T07:59:55.095Z,990.63
2018-12-06T08:00:55.239Z,990.62
2018-12-06T08:01:55.386Z,990.60
2018-12-06T08:02:55.532Z,990.59
2018-12-06T08:03:57.155Z,990.53
2018-12-06T08:04:55.827Z,990.47
2018-12-06T08:05:55.974Z,990.48
2018-12-06T08:06:56.122Z,990.46
2018-12-06T08:07:56.269Z,990.49
2018-12-06T08:08:56.418Z,990.52
2018-12-06T08:09:56.560Z,990.61
2018-12-06T08:10:56.713Z,990.60
2018-12-06T08:11:56.857Z,990.57
2018-12-06T08:12:57.005Z,990.57
2018-12-06T08:13:57.153Z,990.59
2018-12-06T08:14:57.303Z,990.66
2018-12-06T08:15:57.450Z,990.62
2018-12-06T08:16:57.600Z,990.64
2018-12-06T08:17:57.776Z,990.60
2018-12-06T08:18:57.894Z,990.61
2018-12-06T08:19:58.039Z,990.55
2018-12-06T08:20:58.188Z,990.59
2018-12-06T08:21:58.338Z,990.54
2018-12-06T08:22:58.485Z,990.62
2018-12-06T08:23:58.634Z,990.56
2018-12-06T08:24:58.780Z,990.53
2018-12-06T08:25:58.925Z,990.54
2018-12-06T08:26:59.072Z,990.56
2018-12-06T08:27:59.221Z,990.54
2018-12-06T08:28:59.369Z,990.53
2018-12-06T08:29:59.517Z,990.53
2018-12-06T08:30:59.665Z,990.51
2018-12-06T08:31:59.815Z,990.47
2018-12-06T08:32:59.963Z,990.45
2018-12-06T08:34:06.198Z,990.48
2018-12-06T08:35:00.261Z,990.46
2018-12-06T08:36:00.408Z,990.52
2018-12-06T08:37:00.557Z,990.52
2018-12-06T08:38:00.704Z,990.50
2018-12-06T08:39:00.852Z,990.47
2018-12-06T08:40:01.002Z,990.45
2018-12-06T08:41:01.149Z,990.49
2018-12-06T08:42:01.300Z,990.50
2018-12-06T08:43:01.444Z,990.57
2018-12-06T08:44:01.593Z,990.60
2018-12-06T08:45:01.741Z,990.68
2018-12-06T08:46:01.890Z,990.73
2018-12-06T08:47:02.037Z,990.76
2018-12-06T08:48:02.191Z,990.74
2018-12-06T08:49:03.146Z,990.73
2018-12-06T08:50:02.486Z,990.78
2018-12-06T08:51:02.634Z,990.74
2018-12-06T08:52:02.780Z,990.73
2018-12-06T08:53:02.926Z,990.72
2018-12-06T08:54:03.074Z,990.75
2018-12-06T08:55:03.221Z,990.71
2018-12-06T08:56:03.370Z,990.75
2018-12-06T08:57:03.517Z,990.78
2018-12-06T08:58:03.667Z,990.73
2018-12-06T08:59:03.815Z,990.78
2018-12-06T09:00:03.959Z,990.79
2018-12-06T09:01:04.108Z,990.78
2018-12-06T09:02:04.255Z,990.72
2018-12-06T09:03:04.403Z,990.73
2018-12-06T09:04:04.549Z,990.73
2018-12-06T09:05:04.700Z,990.79
2018-12-06T09:06:04.847Z,990.81
2018-12-06T09:07:04.995Z,990.83
2018-12-06T09:08:05.143Z,990.87
2018-12-06T09:09:05.296Z,990.85
2018-12-06T09:10:05.443Z,990.85
2018-12-06T09:11:05.595Z,990.84
2018-12-06T09:12:05.740Z,990.85
2018-12-06T09:13:05.887Z,990.80
2018-12-06T09:14:06.036Z,990.80
2018-12-06T09:15:06.184Z,990.79
2018-12-06T09:16:06.334Z,990.79
2018-12-06T09:17:06.477Z,990.81
2018-12-06T09:18:06.628Z,990.80
2018-12-06T09:19:06.776Z,990.85
2018-12-06T09:20:06.927Z,990.89
2018-12-06T09:21:07.071Z,990.93
2018-12-06T09:22:07.219Z,990.93
2018-12-06T09:23:07.369Z,991.01
2018-12-06T09:24:07.518Z,990.97
2018-12-06T09:25:07.665Z,990.99
2018-12-06T09:26:07.812Z,990.98
2018-12-06T09:27:07.959Z,990.98
2018-12-06T09:28:08.108Z,990.99
2018-12-06T09:29:08.258Z,990.93
2018-12-06T09:30:08.405Z,990.98
2018-12-06T09:31:08.556Z,991.02
2018-12-06T09:32:08.701Z,991.06
2018-12-06T09:33:08.849Z,991.13
2018-12-06T09:34:08.999Z,991.18
2018-12-06T09:35:09.144Z,991.16
2018-12-06T09:36:09.292Z,991.19
2018-12-06T09:37:09.441Z,991.09
2018-12-06T09:38:09.594Z,991.03
2018-12-06T09:39:09.740Z,991.10
2018-12-06T09:40:09.886Z,991.12
2018-12-06T09:41:10.035Z,991.12
2018-12-06T09:42:10.181Z,991.17
2018-12-06T09:43:10.330Z,991.13
2018-12-06T09:44:10.481Z,991.09
2018-12-06T09:45:10.632Z,991.09
2018-12-06T09:46:10.778Z,991.01
2018-12-06T09:47:10.927Z,991.00
2018-12-06T09:48:11.074Z,990.98
2018-12-06T09:49:11.226Z,990.96
2018-12-06T09:50:11.374Z,990.93
2018-12-06T09:51:11.517Z,990.90
2018-12-06T09:52:11.669Z,990.90
2018-12-06T09:53:11.817Z,990.91
2018-12-06T09:54:11.967Z,990.90
2018-12-06T09:55:12.117Z,990.95
2018-12-06T09:56:12.263Z,990.91
2018-12-06T09:57:12.411Z,990.95
2018-12-06T09:58:12.562Z,990.88
2018-12-06T09:59:12.709Z,990.92
2018-12-06T10:00:12.858Z,990.88
2018-12-06T10:01:13.004Z,990.91
2018-12-06T10:02:13.155Z,990.89
2018-12-06T10:03:13.301Z,990.89
2018-12-06T10:04:13.449Z,990.85
2018-12-06T10:05:13.601Z,990.84
2018-12-06T10:06:13.750Z,990.85
2018-12-06T10:07:13.898Z,990.79
2018-12-06T10:08:14.050Z,990.82
2018-12-06T10:09:14.195Z,990.75
2018-12-06T10:10:14.345Z,990.75
2018-12-06T10:11:14.493Z,990.78
2018-12-06T10:12:14.630Z,990.82
2018-12-06T10:13:14.817Z,990.84
2018-12-06T10:14:14.969Z,990.86
2018-12-06T10:15:15.113Z,990.89
2018-12-06T10:16:15.261Z,990.89
2018-12-06T10:17:15.407Z,990.87
2018-12-06T10:18:15.557Z,990.87
2018-12-06T10:19:15.702Z,990.85
2018-12-06T10:20:15.851Z,990.85
2018-12-06T10:21:16.001Z,990.88
2018-12-06T10:22:16.151Z,990.93
2018-12-06T10:23:16.300Z,990.93
2018-12-06T10:24:16.453Z,990.97
2018-12-06T10:25:16.600Z,990.93
2018-12-06T10:26:16.743Z,990.95
2018-12-06T10:27:16.889Z,990.98
2018-12-06T10:28:17.038Z,991.00
2018-12-06T10:29:17.190Z,991.04
2018-12-06T10:30:17.340Z,991.03
2018-12-06T10:31:17.491Z,990.97
2018-12-06T10:32:17.649Z,990.99
2018-12-06T10:33:17.796Z,990.95
2018-12-06T10:34:17.950Z,990.97
2018-12-06T10:35:18.093Z,991.00
2018-12-06T10:36:18.244Z,990.96
2018-12-06T10:37:18.392Z,990.94
2018-12-06T10:38:18.541Z,990.92
2018-12-06T10:39:18.695Z,990.85
2018-12-06T10:40:18.847Z,990.84
2018-12-06T10:41:18.995Z,990.89
2018-12-06T10:42:19.147Z,990.87
2018-12-06T10:43:19.296Z,990.89
2018-12-06T10:44:19.443Z,990.89
2018-12-06T10:45:19.596Z,990.90
2018-12-06T10:46:19.744Z,990.88
2018-12-06T10:47:19.894Z,990.91
2018-12-06T10:48:20.042Z,990.92
2018-12-06T10:49:20.191Z,990.98
2018-12-06T10:50:20.343Z,990.98
2018-12-06T10:51:20.491Z,990.91
2018-12-06T10:52:20.643Z,990.91
2018-12-06T10:53:20.794Z,990.83
2018-12-06T10:54:20.942Z,990.87
2018-12-06T10:55:21.090Z,990.84
2018-12-06T10:56:21.240Z,990.89
2018-12-06T10:57:21.388Z,990.91
2018-12-06T10:58:21.537Z,990.90
2018-12-06T10:59:21.685Z,990.91
2018-12-06T11:00:21.834Z,990.90
2018-12-06T11:01:21.992Z,990.87
2018-12-06T11:02:22.128Z,990.88
2018-12-06T11:03:22.275Z,990.93
2018-12-06T11:04:22.856Z,990.88
2018-12-06T11:05:22.578Z,990.86
2018-12-06T11:06:22.729Z,990.90
2018-12-06T11:07:22.876Z,990.89
2018-12-06T11:08:23.024Z,990.96
2018-12-06T11:09:23.174Z,990.97
2018-12-06T11:10:23.321Z,991.01
2018-12-06T11:11:23.469Z,991.00
2018-12-06T11:12:23.616Z,991.00
2018-12-06T11:13:23.768Z,991.00
2018-12-06T11:14:23.921Z,990.97
2018-12-06T11:15:24.066Z,990.96
2018-12-06T11:16:24.216Z,990.96
2018-12-06T11:17:24.367Z,990.96
2018-12-06T11:18:24.514Z,990.91
2018-12-06T11:19:24.666Z,990.93
2018-12-06T11:20:24.814Z,990.91
2018-12-06T11:21:24.963Z,990.92
2018-12-06T11:22:25.125Z,990.93
2018-12-06T11:23:25.260Z,990.92
2018-12-06T11:24:25.412Z,990.88
2018-12-06T11:25:25.562Z,990.91
2018-12-06T11:26:25.714Z,990.91
2018-12-06T11:27:25.865Z,990.88
2018-12-06T11:28:26.010Z,990.92
2018-12-06T11:29:26.155Z,990.88
2018-12-06T11:30:26.311Z,990.84
2018-12-06T11:31:26.454Z,990.83
2018-12-06T11:32:26.603Z,990.81
2018-12-06T11:33:26.758Z,990.82
2018-12-06T11:34:26.901Z,990.85
2018-12-06T11:35:27.049Z,990.85
2018-12-06T11:36:27.197Z,990.87
2018-12-06T11:37:27.347Z,990.86
2018-12-06T11:38:27.495Z,990.84
2018-12-06T11:39:27.647Z,990.87
2018-12-06T11:40:27.791Z,990.82
2018-12-06T11:41:27.940Z,990.78
2018-12-06T11:42:28.088Z,990.76
2018-12-06T11:43:28.233Z,990.66
2018-12-06T11:44:28.382Z,990.60
2018-12-06T11:45:28.532Z,990.52
2018-12-06T11:46:28.679Z,990.41
2018-12-06T11:47:28.827Z,990.37
2018-12-06T11:48:28.977Z,990.40
2018-12-06T11:49:29.137Z,990.40
2018-12-06T11:50:29.287Z,990.45
2018-12-06T11:51:29.435Z,990.45
2018-12-06T11:52:29.582Z,990.39
2018-12-06T11:53:29.729Z,990.34
2018-12-06T11:54:29.880Z,990.32
2018-12-06T11:55:30.098Z,990.36
2018-12-06T11:56:30.178Z,990.35
2018-12-06T11:57:30.327Z,990.39
2018-12-06T11:58:30.489Z,990.40
2018-12-06T11:59:30.622Z,990.36
2018-12-06T12:00:30.771Z,990.34
2018-12-06T12:01:30.938Z,990.37
2018-12-06T12:02:31.070Z,990.38
2018-12-06T12:03:31.224Z,990.38
2018-12-06T12:04:31.374Z,990.38
2018-12-06T12:05:31.520Z,990.35
2018-12-06T12:06:31.668Z,990.38
2018-12-06T12:07:31.816Z,990.34
2018-12-06T12:08:31.968Z,990.33
2018-12-06T12:09:32.128Z,990.31
2018-12-06T12:10:32.274Z,990.31
2018-12-06T12:11:32.432Z,990.31
2018-12-06T12:12:32.585Z,990.32
2018-12-06T12:13:32.742Z,990.34
2018-12-06T12:14:32.901Z,990.37
2018-12-06T12:15:33.062Z,990.33
2018-12-06T12:16:33.210Z,990.33
2018-12-06T12:17:33.367Z,990.28
2018-12-06T12:18:33.514Z,990.29
2018-12-06T12:19:33.662Z,990.31
2018-12-06T12:20:33.838Z,990.27
2018-12-06T12:21:33.992Z,990.36
2018-12-06T12:22:34.143Z,990.35
2018-12-06T12:23:34.295Z,990.45
2018-12-06T12:24:34.449Z,990.47
2018-12-06T12:25:34.610Z,990.41
2018-12-06T12:26:34.776Z,990.43
2018-12-06T12:27:34.910Z,990.46
2018-12-06T12:28:35.075Z,990.42
2018-12-06T12:29:35.225Z,990.42
2018-12-06T12:30:35.397Z,990.47